sensor_id;sensor_type;location;lat;lon;timestamp;P1;durP1;ratioP1;P2;durP2;ratioP2
8859;SDS011;4466;50.948;4.832;2024-03-02T00:01:04;0.40;;;0.40;;
8859;SDS011;4466;50.948;4.832;2024-03-02T00:03:30;0.70;;;0.60;;
8859;SDS011;4466;50.948;4.832;2024-03-02T00:05:55;0.40;;;0.40;;
8859;SDS011;4466;50.948;4.832;2024-03-02T00:08:25;0.47;;;0.30;;
8859;SDS011;4466;50.948;4.832;2024-03-02T00:10:51;0.33;;;0.33;;
8859;SDS011;4466;50.948;4.832;2024-03-02T00:13:19;1.20;;;0.50;;
8859;SDS011;4466;50.948;4.832;2024-03-02T00:15:53;0.50;;;0.50;;
8859;SDS011;4466;50.948;4.832;2024-03-02T00:18:20;0.37;;;0.30;;
8859;SDS011;4466;50.948;4.832;2024-03-02T00:20:52;0.83;;;0.20;;
8859;SDS011;4466;50.948;4.832;2024-03-02T00:23:22;0.50;;;0.40;;
8859;SDS011;4466;50.948;4.832;2024-03-02T00:25:49;0.30;;;0.30;;
8859;SDS011;4466;50.948;4.832;2024-03-02T00:28:29;0.50;;;0.37;;
8859;SDS011;4466;50.948;4.832;2024-03-02T00:36:10;0.40;;;0.27;;
8859;SDS011;4466;50.948;4.832;2024-03-02T00:38:47;0.40;;;0.30;;
8859;SDS011;4466;50.948;4.832;2024-03-02T00:41:24;0.50;;;0.40;;
8859;SDS011;4466;50.948;4.832;2024-03-02T00:43:58;1.07;;;0.43;;
8859;SDS011;4466;50.948;4.832;2024-03-02T00:46:26;1.03;;;0.30;;
8859;SDS011;4466;50.948;4.832;2024-03-02T00:49:03;0.30;;;0.30;;
8859;SDS011;4466;50.948;4.832;2024-03-02T00:51:31;0.50;;;0.33;;
8859;SDS011;4466;50.948;4.832;2024-03-02T00:53:59;1.93;;;0.50;;
8859;SDS011;4466;50.948;4.832;2024-03-02T00:56:29;1.30;;;0.50;;
8859;SDS011;4466;50.948;4.832;2024-03-02T00:58:55;2.13;;;0.60;;
8859;SDS011;4466;50.948;4.832;2024-03-02T01:01:21;1.93;;;0.60;;
8859;SDS011;4466;50.948;4.832;2024-03-02T01:03:47;1.23;;;0.60;;
8859;SDS011;4466;50.948;4.832;2024-03-02T01:06:14;1.20;;;0.53;;
8859;SDS011;4466;50.948;4.832;2024-03-02T01:08:40;1.10;;;0.70;;
8859;SDS011;4466;50.948;4.832;2024-03-02T01:11:06;0.70;;;0.50;;
8859;SDS011;4466;50.948;4.832;2024-03-02T01:13:32;1.33;;;0.50;;
8859;SDS011;4466;50.948;4.832;2024-03-02T01:15:58;0.83;;;0.57;;
8859;SDS011;4466;50.948;4.832;2024-03-02T01:18:24;0.57;;;0.30;;
8859;SDS011;4466;50.948;4.832;2024-03-02T01:20:50;0.87;;;0.50;;
8859;SDS011;4466;50.948;4.832;2024-03-02T01:23:22;1.30;;;0.60;;
8859;SDS011;4466;50.948;4.832;2024-03-02T01:25:48;0.50;;;0.47;;
8859;SDS011;4466;50.948;4.832;2024-03-02T01:28:14;1.00;;;0.57;;
8859;SDS011;4466;50.948;4.832;2024-03-02T01:30:40;0.20;;;0.20;;
8859;SDS011;4466;50.948;4.832;2024-03-02T01:33:06;1.47;;;0.50;;
8859;SDS011;4466;50.948;4.832;2024-03-02T01:35:32;0.50;;;0.27;;
8859;SDS011;4466;50.948;4.832;2024-03-02T01:37:58;0.73;;;0.40;;
8859;SDS011;4466;50.948;4.832;2024-03-02T01:40:24;2.20;;;0.60;;
8859;SDS011;4466;50.948;4.832;2024-03-02T01:42:53;0.73;;;0.40;;
8859;SDS011;4466;50.948;4.832;2024-03-02T01:45:19;0.23;;;0.20;;
8859;SDS011;4466;50.948;4.832;2024-03-02T01:47:45;2.53;;;0.40;;
8859;SDS011;4466;50.948;4.832;2024-03-02T01:50:12;2.00;;;0.40;;
8859;SDS011;4466;50.948;4.832;2024-03-02T01:52:38;0.60;;;0.30;;
8859;SDS011;4466;50.948;4.832;2024-03-02T01:55:04;0.30;;;0.30;;
8859;SDS011;4466;50.948;4.832;2024-03-02T01:57:31;0.50;;;0.30;;
8859;SDS011;4466;50.948;4.832;2024-03-02T01:59:57;1.00;;;0.40;;
8859;SDS011;4466;50.948;4.832;2024-03-02T02:02:23;0.80;;;0.40;;
8859;SDS011;4466;50.948;4.832;2024-03-02T02:04:49;1.30;;;0.60;;
8859;SDS011;4466;50.948;4.832;2024-03-02T02:07:14;1.63;;;0.40;;
8859;SDS011;4466;50.948;4.832;2024-03-02T02:09:43;0.57;;;0.30;;
8859;SDS011;4466;50.948;4.832;2024-03-02T02:12:09;1.27;;;0.30;;
8859;SDS011;4466;50.948;4.832;2024-03-02T02:14:35;0.27;;;0.20;;
8859;SDS011;4466;50.948;4.832;2024-03-02T02:17:01;1.40;;;0.47;;
8859;SDS011;4466;50.948;4.832;2024-03-02T02:19:27;1.50;;;0.40;;
8859;SDS011;4466;50.948;4.832;2024-03-02T02:21:53;1.23;;;0.53;;
8859;SDS011;4466;50.948;4.832;2024-03-02T02:24:19;0.33;;;0.20;;
8859;SDS011;4466;50.948;4.832;2024-03-02T02:26:45;0.70;;;0.43;;
8859;SDS011;4466;50.948;4.832;2024-03-02T02:29:10;0.73;;;0.40;;
8859;SDS011;4466;50.948;4.832;2024-03-02T02:31:40;1.47;;;0.53;;
8859;SDS011;4466;50.948;4.832;2024-03-02T02:34:06;2.13;;;0.53;;
8859;SDS011;4466;50.948;4.832;2024-03-02T02:36:36;0.40;;;0.20;;
8859;SDS011;4466;50.948;4.832;2024-03-02T02:39:04;0.80;;;0.40;;
8859;SDS011;4466;50.948;4.832;2024-03-02T02:41:32;1.23;;;0.47;;
8859;SDS011;4466;50.948;4.832;2024-03-02T02:43:57;2.03;;;0.50;;
8859;SDS011;4466;50.948;4.832;2024-03-02T02:46:23;1.37;;;0.40;;
8859;SDS011;4466;50.948;4.832;2024-03-02T02:48:48;2.13;;;0.50;;
8859;SDS011;4466;50.948;4.832;2024-03-02T02:51:16;1.20;;;0.50;;
8859;SDS011;4466;50.948;4.832;2024-03-02T02:53:42;1.80;;;0.43;;
8859;SDS011;4466;50.948;4.832;2024-03-02T02:56:07;3.27;;;0.53;;
8859;SDS011;4466;50.948;4.832;2024-03-02T02:58:33;3.10;;;0.53;;
8859;SDS011;4466;50.948;4.832;2024-03-02T03:00:59;1.03;;;0.40;;
8859;SDS011;4466;50.948;4.832;2024-03-02T03:03:24;2.53;;;0.40;;
8859;SDS011;4466;50.948;4.832;2024-03-02T03:05:50;2.53;;;0.70;;
8859;SDS011;4466;50.948;4.832;2024-03-02T03:08:16;2.33;;;0.60;;
8859;SDS011;4466;50.948;4.832;2024-03-02T03:10:41;1.13;;;0.47;;
8859;SDS011;4466;50.948;4.832;2024-03-02T03:13:07;1.20;;;0.40;;
8859;SDS011;4466;50.948;4.832;2024-03-02T03:15:37;0.90;;;0.50;;
8859;SDS011;4466;50.948;4.832;2024-03-02T03:18:03;2.17;;;0.30;;
8859;SDS011;4466;50.948;4.832;2024-03-02T03:20:29;1.23;;;0.40;;
8859;SDS011;4466;50.948;4.832;2024-03-02T03:22:56;2.23;;;0.50;;
8859;SDS011;4466;50.948;4.832;2024-03-02T03:25:22;0.40;;;0.30;;
8859;SDS011;4466;50.948;4.832;2024-03-02T03:27:48;4.37;;;0.70;;
8859;SDS011;4466;50.948;4.832;2024-03-02T03:30:13;1.33;;;0.47;;
8859;SDS011;4466;50.948;4.832;2024-03-02T03:32:39;1.37;;;0.53;;
8859;SDS011;4466;50.948;4.832;2024-03-02T03:35:05;0.90;;;0.43;;
8859;SDS011;4466;50.948;4.832;2024-03-02T03:37:31;0.80;;;0.50;;
8859;SDS011;4466;50.948;4.832;2024-03-02T03:40:01;1.80;;;0.40;;
8859;SDS011;4466;50.948;4.832;2024-03-02T03:42:35;3.07;;;0.50;;
8859;SDS011;4466;50.948;4.832;2024-03-02T03:45:01;2.03;;;0.50;;
8859;SDS011;4466;50.948;4.832;2024-03-02T03:47:27;2.30;;;0.43;;
8859;SDS011;4466;50.948;4.832;2024-03-02T03:49:53;0.77;;;0.40;;
8859;SDS011;4466;50.948;4.832;2024-03-02T03:52:18;2.53;;;0.73;;
8859;SDS011;4466;50.948;4.832;2024-03-02T03:54:44;1.30;;;0.60;;
8859;SDS011;4466;50.948;4.832;2024-03-02T03:57:13;2.63;;;0.50;;
8859;SDS011;4466;50.948;4.832;2024-03-02T03:59:38;1.27;;;0.50;;
8859;SDS011;4466;50.948;4.832;2024-03-02T04:02:04;2.63;;;0.60;;
8859;SDS011;4466;50.948;4.832;2024-03-02T04:04:29;3.17;;;0.70;;
8859;SDS011;4466;50.948;4.832;2024-03-02T04:06:55;2.27;;;0.47;;
8859;SDS011;4466;50.948;4.832;2024-03-02T04:09:21;2.60;;;0.80;;
8859;SDS011;4466;50.948;4.832;2024-03-02T04:11:46;2.50;;;0.60;;
8859;SDS011;4466;50.948;4.832;2024-03-02T04:14:12;1.67;;;0.50;;
8859;SDS011;4466;50.948;4.832;2024-03-02T04:16:38;2.67;;;0.60;;
8859;SDS011;4466;50.948;4.832;2024-03-02T04:19:04;0.53;;;0.30;;
8859;SDS011;4466;50.948;4.832;2024-03-02T04:21:30;0.70;;;0.47;;
8859;SDS011;4466;50.948;4.832;2024-03-02T04:23:55;0.60;;;0.47;;
8859;SDS011;4466;50.948;4.832;2024-03-02T04:26:23;1.77;;;0.50;;
8859;SDS011;4466;50.948;4.832;2024-03-02T04:28:50;1.73;;;0.60;;
8859;SDS011;4466;50.948;4.832;2024-03-02T04:31:16;2.33;;;0.60;;
8859;SDS011;4466;50.948;4.832;2024-03-02T04:33:42;1.13;;;0.67;;
8859;SDS011;4466;50.948;4.832;2024-03-02T04:36:08;1.13;;;0.50;;
8859;SDS011;4466;50.948;4.832;2024-03-02T04:38:36;1.07;;;0.40;;
8859;SDS011;4466;50.948;4.832;2024-03-02T04:41:06;1.80;;;0.50;;
8859;SDS011;4466;50.948;4.832;2024-03-02T04:43:32;2.13;;;0.60;;
8859;SDS011;4466;50.948;4.832;2024-03-02T04:45:58;2.50;;;0.57;;
8859;SDS011;4466;50.948;4.832;2024-03-02T04:48:24;1.50;;;0.50;;
8859;SDS011;4466;50.948;4.832;2024-03-02T04:50:50;4.30;;;0.67;;
8859;SDS011;4466;50.948;4.832;2024-03-02T04:53:16;2.53;;;0.70;;
8859;SDS011;4466;50.948;4.832;2024-03-02T04:55:44;2.27;;;0.60;;
8859;SDS011;4466;50.948;4.832;2024-03-02T04:58:29;1.63;;;0.37;;
8859;SDS011;4466;50.948;4.832;2024-03-02T05:00:55;1.10;;;0.50;;
8859;SDS011;4466;50.948;4.832;2024-03-02T05:03:21;1.23;;;0.53;;
8859;SDS011;4466;50.948;4.832;2024-03-02T05:05:47;2.33;;;0.60;;
8859;SDS011;4466;50.948;4.832;2024-03-02T05:08:12;2.10;;;0.60;;
8859;SDS011;4466;50.948;4.832;2024-03-02T05:10:41;3.17;;;0.60;;
8859;SDS011;4466;50.948;4.832;2024-03-02T05:13:07;3.63;;;0.70;;
8859;SDS011;4466;50.948;4.832;2024-03-02T05:15:32;2.57;;;0.70;;
8859;SDS011;4466;50.948;4.832;2024-03-02T05:17:58;2.70;;;0.67;;
8859;SDS011;4466;50.948;4.832;2024-03-02T05:20:24;1.23;;;0.60;;
8859;SDS011;4466;50.948;4.832;2024-03-02T05:22:50;2.00;;;0.50;;
8859;SDS011;4466;50.948;4.832;2024-03-02T05:25:15;3.37;;;0.70;;
8859;SDS011;4466;50.948;4.832;2024-03-02T05:27:41;1.27;;;0.40;;
8859;SDS011;4466;50.948;4.832;2024-03-02T05:30:07;3.77;;;1.10;;
8859;SDS011;4466;50.948;4.832;2024-03-02T05:32:33;1.57;;;0.77;;
8859;SDS011;4466;50.948;4.832;2024-03-02T05:34:59;2.50;;;0.87;;
8859;SDS011;4466;50.948;4.832;2024-03-02T05:37:25;3.67;;;0.80;;
8859;SDS011;4466;50.948;4.832;2024-03-02T05:39:50;1.67;;;0.60;;
8859;SDS011;4466;50.948;4.832;2024-03-02T05:42:16;1.83;;;0.60;;
8859;SDS011;4466;50.948;4.832;2024-03-02T05:44:43;3.93;;;0.70;;
8859;SDS011;4466;50.948;4.832;2024-03-02T05:47:09;3.40;;;0.70;;
8859;SDS011;4466;50.948;4.832;2024-03-02T05:49:35;0.90;;;0.43;;
8859;SDS011;4466;50.948;4.832;2024-03-02T05:52:00;3.23;;;0.87;;
8859;SDS011;4466;50.948;4.832;2024-03-02T05:54:26;3.67;;;0.90;;
8859;SDS011;4466;50.948;4.832;2024-03-02T05:56:52;1.63;;;0.70;;
8859;SDS011;4466;50.948;4.832;2024-03-02T05:59:17;4.10;;;0.63;;
8859;SDS011;4466;50.948;4.832;2024-03-02T06:01:43;2.40;;;0.93;;
8859;SDS011;4466;50.948;4.832;2024-03-02T06:04:11;3.47;;;0.90;;
8859;SDS011;4466;50.948;4.832;2024-03-02T06:06:37;2.20;;;0.77;;
8859;SDS011;4466;50.948;4.832;2024-03-02T06:09:04;1.93;;;0.73;;
8859;SDS011;4466;50.948;4.832;2024-03-02T06:11:36;2.50;;;0.80;;
8859;SDS011;4466;50.948;4.832;2024-03-02T06:14:02;2.53;;;0.77;;
8859;SDS011;4466;50.948;4.832;2024-03-02T06:16:28;3.77;;;0.77;;
8859;SDS011;4466;50.948;4.832;2024-03-02T06:18:55;2.20;;;0.70;;
8859;SDS011;4466;50.948;4.832;2024-03-02T06:21:22;3.57;;;1.00;;
8859;SDS011;4466;50.948;4.832;2024-03-02T06:23:52;2.30;;;0.50;;
8859;SDS011;4466;50.948;4.832;2024-03-02T06:26:17;1.37;;;0.60;;
8859;SDS011;4466;50.948;4.832;2024-03-02T06:28:44;4.33;;;0.80;;
8859;SDS011;4466;50.948;4.832;2024-03-02T06:31:09;2.13;;;0.60;;
8859;SDS011;4466;50.948;4.832;2024-03-02T06:33:35;2.90;;;0.70;;
8859;SDS011;4466;50.948;4.832;2024-03-02T06:36:01;1.20;;;0.63;;
8859;SDS011;4466;50.948;4.832;2024-03-02T06:38:27;3.13;;;0.90;;
8859;SDS011;4466;50.948;4.832;2024-03-02T06:40:52;3.60;;;0.90;;
8859;SDS011;4466;50.948;4.832;2024-03-02T06:43:18;3.83;;;0.80;;
8859;SDS011;4466;50.948;4.832;2024-03-02T06:45:48;3.47;;;0.73;;
8859;SDS011;4466;50.948;4.832;2024-03-02T06:48:14;2.90;;;0.70;;
8859;SDS011;4466;50.948;4.832;2024-03-02T06:50:44;2.97;;;0.80;;
8859;SDS011;4466;50.948;4.832;2024-03-02T06:53:10;1.27;;;0.70;;
8859;SDS011;4466;50.948;4.832;2024-03-02T06:55:35;2.20;;;0.60;;
8859;SDS011;4466;50.948;4.832;2024-03-02T06:58:04;5.37;;;0.87;;
8859;SDS011;4466;50.948;4.832;2024-03-02T07:00:30;1.87;;;0.63;;
8859;SDS011;4466;50.948;4.832;2024-03-02T07:02:55;1.50;;;0.70;;
8859;SDS011;4466;50.948;4.832;2024-03-02T07:05:21;2.00;;;0.73;;
8859;SDS011;4466;50.948;4.832;2024-03-02T07:07:46;1.97;;;0.90;;
8859;SDS011;4466;50.948;4.832;2024-03-02T07:10:12;2.60;;;1.00;;
8859;SDS011;4466;50.948;4.832;2024-03-02T07:12:40;1.93;;;0.87;;
8859;SDS011;4466;50.948;4.832;2024-03-02T07:15:06;2.90;;;1.00;;
8859;SDS011;4466;50.948;4.832;2024-03-02T07:17:32;2.43;;;0.70;;
8859;SDS011;4466;50.948;4.832;2024-03-02T07:19:58;2.33;;;0.80;;
8859;SDS011;4466;50.948;4.832;2024-03-02T07:22:24;3.43;;;0.90;;
8859;SDS011;4466;50.948;4.832;2024-03-02T07:24:50;1.57;;;0.70;;
8859;SDS011;4466;50.948;4.832;2024-03-02T07:27:16;2.37;;;0.93;;
8859;SDS011;4466;50.948;4.832;2024-03-02T07:29:42;1.80;;;0.90;;
8859;SDS011;4466;50.948;4.832;2024-03-02T07:32:08;3.27;;;1.10;;
8859;SDS011;4466;50.948;4.832;2024-03-02T07:34:35;4.37;;;0.90;;
8859;SDS011;4466;50.948;4.832;2024-03-02T07:37:01;4.00;;;0.93;;
8859;SDS011;4466;50.948;4.832;2024-03-02T07:39:30;3.13;;;0.87;;
8859;SDS011;4466;50.948;4.832;2024-03-02T07:41:55;2.97;;;1.13;;
8859;SDS011;4466;50.948;4.832;2024-03-02T07:44:21;1.77;;;0.90;;
8859;SDS011;4466;50.948;4.832;2024-03-02T07:46:48;2.83;;;0.77;;
8859;SDS011;4466;50.948;4.832;2024-03-02T07:49:16;1.67;;;0.73;;
8859;SDS011;4466;50.948;4.832;2024-03-02T07:51:43;4.07;;;1.13;;
8859;SDS011;4466;50.948;4.832;2024-03-02T07:54:09;2.73;;;0.90;;
8859;SDS011;4466;50.948;4.832;2024-03-02T07:56:37;2.53;;;0.70;;
8859;SDS011;4466;50.948;4.832;2024-03-02T07:59:03;2.90;;;1.20;;
8859;SDS011;4466;50.948;4.832;2024-03-02T08:01:30;2.23;;;0.83;;
8859;SDS011;4466;50.948;4.832;2024-03-02T08:04:00;3.77;;;0.90;;
8859;SDS011;4466;50.948;4.832;2024-03-02T08:06:26;2.43;;;0.77;;
8859;SDS011;4466;50.948;4.832;2024-03-02T08:09:01;2.40;;;0.73;;
8859;SDS011;4466;50.948;4.832;2024-03-02T08:11:29;3.80;;;0.97;;
8859;SDS011;4466;50.948;4.832;2024-03-02T08:13:56;4.37;;;1.10;;
8859;SDS011;4466;50.948;4.832;2024-03-02T08:16:25;4.20;;;1.03;;
8859;SDS011;4466;50.948;4.832;2024-03-02T08:18:50;2.20;;;1.00;;
8859;SDS011;4466;50.948;4.832;2024-03-02T08:21:17;4.50;;;1.00;;
8859;SDS011;4466;50.948;4.832;2024-03-02T08:23:42;5.67;;;1.20;;
8859;SDS011;4466;50.948;4.832;2024-03-02T08:26:08;2.60;;;1.00;;
8859;SDS011;4466;50.948;4.832;2024-03-02T08:28:35;4.63;;;1.00;;
8859;SDS011;4466;50.948;4.832;2024-03-02T08:31:02;5.17;;;1.27;;
8859;SDS011;4466;50.948;4.832;2024-03-02T08:33:31;4.67;;;1.00;;
8859;SDS011;4466;50.948;4.832;2024-03-02T08:35:57;4.93;;;0.90;;
8859;SDS011;4466;50.948;4.832;2024-03-02T08:38:23;6.30;;;1.20;;
8859;SDS011;4466;50.948;4.832;2024-03-02T08:40:49;3.97;;;0.90;;
8859;SDS011;4466;50.948;4.832;2024-03-02T08:43:15;5.00;;;1.17;;
8859;SDS011;4466;50.948;4.832;2024-03-02T08:45:40;5.80;;;1.20;;
8859;SDS011;4466;50.948;4.832;2024-03-02T08:48:09;4.93;;;1.53;;
8859;SDS011;4466;50.948;4.832;2024-03-02T08:50:35;4.67;;;1.43;;
8859;SDS011;4466;50.948;4.832;2024-03-02T08:53:02;1.93;;;1.03;;
8859;SDS011;4466;50.948;4.832;2024-03-02T08:55:30;3.17;;;1.20;;
8859;SDS011;4466;50.948;4.832;2024-03-02T08:57:56;4.87;;;1.00;;
8859;SDS011;4466;50.948;4.832;2024-03-02T09:00:22;3.23;;;0.93;;
8859;SDS011;4466;50.948;4.832;2024-03-02T09:02:48;4.60;;;1.20;;
8859;SDS011;4466;50.948;4.832;2024-03-02T09:05:14;4.33;;;1.10;;
8859;SDS011;4466;50.948;4.832;2024-03-02T09:07:40;3.93;;;0.80;;
8859;SDS011;4466;50.948;4.832;2024-03-02T09:10:06;4.00;;;1.10;;
8859;SDS011;4466;50.948;4.832;2024-03-02T09:12:32;4.57;;;1.20;;
8859;SDS011;4466;50.948;4.832;2024-03-02T09:14:59;2.33;;;1.00;;
8859;SDS011;4466;50.948;4.832;2024-03-02T09:17:26;4.63;;;1.17;;
8859;SDS011;4466;50.948;4.832;2024-03-02T09:19:52;5.03;;;0.80;;
8859;SDS011;4466;50.948;4.832;2024-03-02T09:22:18;5.17;;;1.07;;
8859;SDS011;4466;50.948;4.832;2024-03-02T09:24:44;4.30;;;1.10;;
8859;SDS011;4466;50.948;4.832;2024-03-02T09:27:09;2.50;;;0.90;;
8859;SDS011;4466;50.948;4.832;2024-03-02T09:29:35;4.50;;;0.90;;
8859;SDS011;4466;50.948;4.832;2024-03-02T09:32:01;3.47;;;0.83;;
8859;SDS011;4466;50.948;4.832;2024-03-02T09:34:27;6.93;;;1.00;;
8859;SDS011;4466;50.948;4.832;2024-03-02T09:36:53;3.50;;;1.10;;
8859;SDS011;4466;50.948;4.832;2024-03-02T09:39:18;4.13;;;1.37;;
8859;SDS011;4466;50.948;4.832;2024-03-02T09:41:45;7.07;;;1.73;;
8859;SDS011;4466;50.948;4.832;2024-03-02T09:44:12;5.37;;;1.03;;
8859;SDS011;4466;50.948;4.832;2024-03-02T09:46:37;3.50;;;0.97;;
8859;SDS011;4466;50.948;4.832;2024-03-02T09:49:03;4.07;;;1.17;;
8859;SDS011;4466;50.948;4.832;2024-03-02T09:51:29;4.80;;;1.00;;
8859;SDS011;4466;50.948;4.832;2024-03-02T09:53:56;2.60;;;1.10;;
8859;SDS011;4466;50.948;4.832;2024-03-02T09:56:22;2.53;;;1.00;;
8859;SDS011;4466;50.948;4.832;2024-03-02T09:58:47;4.40;;;1.10;;
8859;SDS011;4466;50.948;4.832;2024-03-02T10:01:13;3.00;;;1.20;;
8859;SDS011;4466;50.948;4.832;2024-03-02T10:03:39;5.43;;;1.27;;
8859;SDS011;4466;50.948;4.832;2024-03-02T10:06:20;6.40;;;1.30;;
8859;SDS011;4466;50.948;4.832;2024-03-02T10:08:47;4.03;;;1.10;;
8859;SDS011;4466;50.948;4.832;2024-03-02T10:11:33;3.03;;;1.10;;
8859;SDS011;4466;50.948;4.832;2024-03-02T10:14:08;6.67;;;1.50;;
8859;SDS011;4466;50.948;4.832;2024-03-02T10:16:38;3.60;;;1.10;;
8859;SDS011;4466;50.948;4.832;2024-03-02T10:19:14;3.30;;;1.10;;
8859;SDS011;4466;50.948;4.832;2024-03-02T10:21:48;4.80;;;1.13;;
8859;SDS011;4466;50.948;4.832;2024-03-02T10:24:17;5.43;;;1.30;;
8859;SDS011;4466;50.948;4.832;2024-03-02T10:26:44;6.27;;;1.17;;
8859;SDS011;4466;50.948;4.832;2024-03-02T10:29:10;2.90;;;0.90;;
8859;SDS011;4466;50.948;4.832;2024-03-02T10:31:37;1.73;;;0.80;;
8859;SDS011;4466;50.948;4.832;2024-03-02T10:34:03;4.47;;;1.20;;
8859;SDS011;4466;50.948;4.832;2024-03-02T10:36:29;4.87;;;1.03;;
8859;SDS011;4466;50.948;4.832;2024-03-02T10:38:58;5.97;;;1.10;;
8859;SDS011;4466;50.948;4.832;2024-03-02T10:41:24;2.80;;;0.93;;
8859;SDS011;4466;50.948;4.832;2024-03-02T10:43:55;3.43;;;0.87;;
8859;SDS011;4466;50.948;4.832;2024-03-02T10:46:31;5.13;;;1.07;;
8859;SDS011;4466;50.948;4.832;2024-03-02T10:48:58;2.40;;;0.90;;
8859;SDS011;4466;50.948;4.832;2024-03-02T10:51:28;4.50;;;1.10;;
8859;SDS011;4466;50.948;4.832;2024-03-02T10:53:57;6.23;;;1.07;;
8859;SDS011;4466;50.948;4.832;2024-03-02T10:56:30;2.80;;;0.90;;
8859;SDS011;4466;50.948;4.832;2024-03-02T10:59:03;4.60;;;1.00;;
8859;SDS011;4466;50.948;4.832;2024-03-02T11:01:32;3.93;;;1.10;;
8859;SDS011;4466;50.948;4.832;2024-03-02T11:03:58;3.67;;;1.07;;
8859;SDS011;4466;50.948;4.832;2024-03-02T11:06:27;4.97;;;1.30;;
8859;SDS011;4466;50.948;4.832;2024-03-02T11:08:54;2.60;;;1.00;;
8859;SDS011;4466;50.948;4.832;2024-03-02T11:11:27;3.27;;;0.93;;
8859;SDS011;4466;50.948;4.832;2024-03-02T11:13:55;4.80;;;1.00;;
8859;SDS011;4466;50.948;4.832;2024-03-02T11:16:33;4.87;;;1.23;;
8859;SDS011;4466;50.948;4.832;2024-03-02T11:19:10;3.47;;;1.07;;
8859;SDS011;4466;50.948;4.832;2024-03-02T11:21:38;3.00;;;1.17;;
8859;SDS011;4466;50.948;4.832;2024-03-02T11:26:52;3.70;;;1.10;;
8859;SDS011;4466;50.948;4.832;2024-03-02T11:32:05;3.93;;;1.40;;
8859;SDS011;4466;50.948;4.832;2024-03-02T11:34:38;2.67;;;1.10;;
8859;SDS011;4466;50.948;4.832;2024-03-02T11:37:10;6.53;;;1.00;;
8859;SDS011;4466;50.948;4.832;2024-03-02T11:39:37;5.30;;;1.10;;
8859;SDS011;4466;50.948;4.832;2024-03-02T11:42:09;3.42;;;1.10;;
8859;SDS011;4466;50.948;4.832;2024-03-02T11:44:37;2.27;;;0.90;;
8859;SDS011;4466;50.948;4.832;2024-03-02T11:47:07;3.03;;;0.93;;
8859;SDS011;4466;50.948;4.832;2024-03-02T11:52:15;2.38;;;1.00;;
8859;SDS011;4466;50.948;4.832;2024-03-02T11:54:43;4.00;;;1.40;;
8859;SDS011;4466;50.948;4.832;2024-03-02T11:57:22;3.50;;;1.17;;
8859;SDS011;4466;50.948;4.832;2024-03-02T11:59:48;3.25;;;1.08;;
8859;SDS011;4466;50.948;4.832;2024-03-02T12:02:19;1.40;;;0.70;;
8859;SDS011;4466;50.948;4.832;2024-03-02T12:04:46;3.55;;;1.00;;
8859;SDS011;4466;50.948;4.832;2024-03-02T12:07:18;4.10;;;1.27;;
8859;SDS011;4466;50.948;4.832;2024-03-02T12:09:48;4.03;;;1.17;;
8859;SDS011;4466;50.948;4.832;2024-03-02T12:12:15;4.57;;;1.10;;
8859;SDS011;4466;50.948;4.832;2024-03-02T12:14:52;2.97;;;1.17;;
8859;SDS011;4466;50.948;4.832;2024-03-02T12:17:20;5.38;;;1.40;;
8859;SDS011;4466;50.948;4.832;2024-03-02T12:19:46;2.78;;;1.23;;
8859;SDS011;4466;50.948;4.832;2024-03-02T12:22:12;3.63;;;1.00;;
8859;SDS011;4466;50.948;4.832;2024-03-02T12:24:38;4.93;;;1.17;;
8859;SDS011;4466;50.948;4.832;2024-03-02T12:27:05;3.45;;;1.42;;
8859;SDS011;4466;50.948;4.832;2024-03-02T12:29:32;4.57;;;1.40;;
8859;SDS011;4466;50.948;4.832;2024-03-02T12:31:59;3.60;;;1.15;;
8859;SDS011;4466;50.948;4.832;2024-03-02T12:34:26;4.00;;;1.17;;
8859;SDS011;4466;50.948;4.832;2024-03-02T12:36:52;5.55;;;1.20;;
8859;SDS011;4466;50.948;4.832;2024-03-02T12:39:20;6.03;;;1.67;;
8859;SDS011;4466;50.948;4.832;2024-03-02T12:41:48;4.35;;;1.05;;
8859;SDS011;4466;50.948;4.832;2024-03-02T12:44:15;2.30;;;0.90;;
8859;SDS011;4466;50.948;4.832;2024-03-02T12:46:45;3.88;;;1.05;;
8859;SDS011;4466;50.948;4.832;2024-03-02T12:49:12;3.28;;;1.20;;
8859;SDS011;4466;50.948;4.832;2024-03-02T12:51:41;4.95;;;1.00;;
8859;SDS011;4466;50.948;4.832;2024-03-02T12:54:08;3.42;;;0.85;;
8859;SDS011;4466;50.948;4.832;2024-03-02T12:56:35;3.38;;;1.10;;
8859;SDS011;4466;50.948;4.832;2024-03-02T12:59:03;3.80;;;1.05;;
8859;SDS011;4466;50.948;4.832;2024-03-02T13:01:29;3.92;;;1.20;;
8859;SDS011;4466;50.948;4.832;2024-03-02T13:03:56;2.85;;;1.10;;
8859;SDS011;4466;50.948;4.832;2024-03-02T13:06:23;4.10;;;1.00;;
8859;SDS011;4466;50.948;4.832;2024-03-02T13:08:49;3.25;;;1.10;;
8859;SDS011;4466;50.948;4.832;2024-03-02T13:11:15;3.15;;;0.90;;
8859;SDS011;4466;50.948;4.832;2024-03-02T13:13:42;2.22;;;0.90;;
8859;SDS011;4466;50.948;4.832;2024-03-02T13:16:11;2.47;;;0.90;;
8859;SDS011;4466;50.948;4.832;2024-03-02T13:18:41;4.28;;;0.90;;
8859;SDS011;4466;50.948;4.832;2024-03-02T13:21:07;3.58;;;1.08;;
8859;SDS011;4466;50.948;4.832;2024-03-02T13:23:34;2.17;;;0.90;;
8859;SDS011;4466;50.948;4.832;2024-03-02T13:25:59;5.90;;;1.30;;
8859;SDS011;4466;50.948;4.832;2024-03-02T13:28:26;2.28;;;0.85;;
8859;SDS011;4466;50.948;4.832;2024-03-02T13:30:52;1.23;;;0.77;;
8859;SDS011;4466;50.948;4.832;2024-03-02T13:33:18;2.50;;;1.00;;
8859;SDS011;4466;50.948;4.832;2024-03-02T13:35:47;3.72;;;0.90;;
8859;SDS011;4466;50.948;4.832;2024-03-02T13:38:15;3.28;;;1.10;;
8859;SDS011;4466;50.948;4.832;2024-03-02T13:40:44;2.78;;;0.98;;
8859;SDS011;4466;50.948;4.832;2024-03-02T13:43:10;4.88;;;1.20;;
8859;SDS011;4466;50.948;4.832;2024-03-02T13:45:37;1.92;;;0.70;;
8859;SDS011;4466;50.948;4.832;2024-03-02T13:48:05;3.75;;;1.08;;
8859;SDS011;4466;50.948;4.832;2024-03-02T13:50:31;3.30;;;0.93;;
8859;SDS011;4466;50.948;4.832;2024-03-02T13:52:57;1.75;;;0.90;;
8859;SDS011;4466;50.948;4.832;2024-03-02T13:55:23;1.85;;;0.50;;
8859;SDS011;4466;50.948;4.832;2024-03-02T13:57:48;1.70;;;0.70;;
8859;SDS011;4466;50.948;4.832;2024-03-02T14:00:15;2.08;;;0.77;;
8859;SDS011;4466;50.948;4.832;2024-03-02T14:02:45;3.58;;;0.98;;
8859;SDS011;4466;50.948;4.832;2024-03-02T14:05:11;3.15;;;1.00;;
8859;SDS011;4466;50.948;4.832;2024-03-02T14:07:38;3.22;;;0.90;;
8859;SDS011;4466;50.948;4.832;2024-03-02T14:10:04;1.95;;;0.90;;
8859;SDS011;4466;50.948;4.832;2024-03-02T14:12:30;3.00;;;0.75;;
8859;SDS011;4466;50.948;4.832;2024-03-02T14:14:56;1.42;;;0.57;;
8859;SDS011;4466;50.948;4.832;2024-03-02T14:17:27;4.45;;;0.65;;
8859;SDS011;4466;50.948;4.832;2024-03-02T14:19:53;2.00;;;0.65;;
8859;SDS011;4466;50.948;4.832;2024-03-02T14:22:21;3.88;;;0.90;;
8859;SDS011;4466;50.948;4.832;2024-03-02T14:24:47;3.10;;;0.90;;
8859;SDS011;4466;50.948;4.832;2024-03-02T14:27:14;1.73;;;0.73;;
8859;SDS011;4466;50.948;4.832;2024-03-02T14:29:40;1.83;;;0.77;;
8859;SDS011;4466;50.948;4.832;2024-03-02T14:32:07;1.30;;;0.57;;
8859;SDS011;4466;50.948;4.832;2024-03-02T14:34:33;1.83;;;0.80;;
8859;SDS011;4466;50.948;4.832;2024-03-02T14:36:59;2.13;;;0.70;;
8859;SDS011;4466;50.948;4.832;2024-03-02T14:39:25;3.95;;;0.85;;
8859;SDS011;4466;50.948;4.832;2024-03-02T14:41:51;2.70;;;0.75;;
8859;SDS011;4466;50.948;4.832;2024-03-02T14:44:20;3.53;;;0.90;;
8859;SDS011;4466;50.948;4.832;2024-03-02T14:46:48;2.10;;;0.63;;
8859;SDS011;4466;50.948;4.832;2024-03-02T14:49:15;0.95;;;0.70;;
8859;SDS011;4466;50.948;4.832;2024-03-02T14:51:41;1.50;;;0.80;;
8859;SDS011;4466;50.948;4.832;2024-03-02T14:54:06;2.17;;;0.70;;
8859;SDS011;4466;50.948;4.832;2024-03-02T14:56:32;2.40;;;0.80;;
8859;SDS011;4466;50.948;4.832;2024-03-02T14:58:58;2.35;;;0.75;;
8859;SDS011;4466;50.948;4.832;2024-03-02T15:01:23;1.83;;;0.80;;
8859;SDS011;4466;50.948;4.832;2024-03-02T15:03:50;2.80;;;0.80;;
8859;SDS011;4466;50.948;4.832;2024-03-02T15:06:15;4.88;;;0.90;;
8859;SDS011;4466;50.948;4.832;2024-03-02T15:08:41;4.45;;;0.82;;
8859;SDS011;4466;50.948;4.832;2024-03-02T15:11:07;8.32;;;1.40;;
8859;SDS011;4466;50.948;4.832;2024-03-02T15:13:33;1.95;;;0.70;;
8859;SDS011;4466;50.948;4.832;2024-03-02T15:15:59;1.50;;;0.60;;
8859;SDS011;4466;50.948;4.832;2024-03-02T15:18:25;2.40;;;0.80;;
8859;SDS011;4466;50.948;4.832;2024-03-02T15:20:51;2.30;;;0.70;;
8859;SDS011;4466;50.948;4.832;2024-03-02T15:23:17;1.40;;;0.60;;
8859;SDS011;4466;50.948;4.832;2024-03-02T15:25:43;1.45;;;0.80;;
8859;SDS011;4466;50.948;4.832;2024-03-02T15:28:08;4.07;;;0.88;;